sensor_id;sensor_type;location;lat;lon;timestamp;pressure;altitude;pressure_sealevel;temperature;humidity
39823;BME280;25499;53.958;10.970;2024-02-21T07:25:01;101121.88;;;7.33;100.00
39823;BME280;25499;53.958;10.970;2024-02-21T07:27:28;101127.94;;;7.35;100.00
39823;BME280;25499;53.958;10.970;2024-02-21T07:29:57;101128.00;;;7.38;100.00
39823;BME280;25499;53.958;10.970;2024-02-21T07:32:24;101122.13;;;7.49;100.00
39823;BME280;25499;53.958;10.970;2024-02-21T07:34:52;101131.56;;;7.46;100.00
39823;BME280;25499;53.958;10.970;2024-02-21T07:37:19;101109.91;;;7.41;100.00
39823;BME280;25499;53.958;10.970;2024-02-21T07:39:46;101128.06;;;7.43;100.00
39823;BME280;25499;53.958;10.970;2024-02-21T07:42:15;101121.97;;;7.39;100.00
39823;BME280;25499;53.958;10.970;2024-02-21T07:44:43;101123.69;;;7.39;100.00
39823;BME280;25499;53.958;10.970;2024-02-21T07:47:11;101118.53;;;7.40;100.00
39823;BME280;25499;53.958;10.970;2024-02-21T07:49:42;101120.88;;;7.81;100.00
39823;BME280;25499;53.958;10.970;2024-02-21T07:52:10;101114.94;;;7.90;100.00
39823;BME280;25499;53.958;10.970;2024-02-21T07:54:38;101121.81;;;7.87;100.00
39823;BME280;25499;53.958;10.970;2024-02-21T07:57:06;101116.47;;;7.76;100.00
39823;BME280;25499;53.958;10.970;2024-02-21T07:59:35;101116.31;;;7.66;100.00
39823;BME280;25499;53.958;10.970;2024-02-21T08:02:02;101122.47;;;7.73;100.00
39823;BME280;25499;53.958;10.970;2024-02-21T08:04:32;101122.50;;;7.75;100.00
39823;BME280;25499;53.958;10.970;2024-02-21T08:07:00;101123.34;;;7.72;100.00
39823;BME280;25499;53.958;10.970;2024-02-21T08:09:30;101131.13;;;7.72;100.00
39823;BME280;25499;53.958;10.970;2024-02-21T08:11:57;101124.94;;;7.64;100.00
39823;BME280;25499;53.958;10.970;2024-02-21T08:14:24;101111.25;;;7.73;100.00
39823;BME280;25499;53.958;10.970;2024-02-21T08:16:53;101110.84;;;8.09;100.00
39823;BME280;25499;53.958;10.970;2024-02-21T08:19:21;101112.91;;;8.35;100.00
39823;BME280;25499;53.958;10.970;2024-02-21T08:21:49;101098.44;;;8.51;100.00
39823;BME280;25499;53.958;10.970;2024-02-21T08:24:16;101090.03;;;8.76;100.00
39823;BME280;25499;53.958;10.970;2024-02-21T08:26:43;101100.56;;;8.92;100.00
39823;BME280;25499;53.958;10.970;2024-02-21T08:29:10;101096.38;;;9.06;100.00
39823;BME280;25499;53.958;10.970;2024-02-21T08:31:37;101097.31;;;9.18;100.00
39823;BME280;25499;53.958;10.970;2024-02-21T08:34:05;101084.28;;;9.13;100.00
39823;BME280;25499;53.958;10.970;2024-02-21T08:36:33;101091.31;;;9.26;100.00
39823;BME280;25499;53.958;10.970;2024-02-21T08:39:00;101110.44;;;9.34;100.00
39823;BME280;25499;53.958;10.970;2024-02-21T08:41:31;101111.38;;;9.43;100.00
39823;BME280;25499;53.958;10.970;2024-02-21T08:43:58;101112.31;;;9.57;100.00
39823;BME280;25499;53.958;10.970;2024-02-21T08:46:25;101109.75;;;9.59;100.00
39823;BME280;25499;53.958;10.970;2024-02-21T08:48:52;101110.84;;;9.93;100.00
39823;BME280;25499;53.958;10.970;2024-02-21T08:51:20;101116.13;;;10.08;100.00
39823;BME280;25499;53.958;10.970;2024-02-21T08:53:48;101105.75;;;10.21;100.00
39823;BME280;25499;53.958;10.970;2024-02-21T08:56:15;101108.53;;;10.62;100.00
39823;BME280;25499;53.958;10.970;2024-02-21T08:58:43;101096.38;;;10.61;100.00
39823;BME280;25499;53.958;10.970;2024-02-21T09:01:10;101092.00;;;10.59;100.00
39823;BME280;25499;53.958;10.970;2024-02-21T09:03:37;101102.50;;;11.11;100.00
39823;BME280;25499;53.958;10.970;2024-02-21T09:06:05;101096.41;;;11.03;100.00
39823;BME280;25499;53.958;10.970;2024-02-21T09:08:33;101099.91;;;11.13;100.00
39823;BME280;25499;53.958;10.970;2024-02-21T09:11:00;101084.25;;;11.37;100.00
39823;BME280;25499;53.958;10.970;2024-02-21T09:13:27;101087.75;;;11.27;100.00
39823;BME280;25499;53.958;10.970;2024-02-21T09:15:55;101069.53;;;11.13;100.00
39823;BME280;25499;53.958;10.970;2024-02-21T09:18:22;101074.66;;;11.50;100.00
39823;BME280;25499;53.958;10.970;2024-02-21T09:20:49;101046.03;;;11.27;100.00
39823;BME280;25499;53.958;10.970;2024-02-21T09:23:16;101052.91;;;11.59;100.00
39823;BME280;25499;53.958;10.970;2024-02-21T09:25:46;101045.13;;;11.54;100.00
39823;BME280;25499;53.958;10.970;2024-02-21T09:28:13;101027.72;;;11.61;100.00
39823;BME280;25499;53.958;10.970;2024-02-21T09:30:40;101020.69;;;11.86;100.00
39823;BME280;25499;53.958;10.970;2024-02-21T09:33:07;101019.69;;;12.17;100.00
39823;BME280;25499;53.958;10.970;2024-02-21T09:35:33;101011.84;;;12.15;100.00
39823;BME280;25499;53.958;10.970;2024-02-21T09:38:01;100996.91;;;12.37;100.00
39823;BME280;25499;53.958;10.970;2024-02-21T09:40:28;101004.31;;;12.99;100.00
39823;BME280;25499;53.958;10.970;2024-02-21T09:43:02;100967.56;;;13.13;100.00
39823;BME280;25499;53.958;10.970;2024-02-21T09:45:32;100949.09;;;13.30;100.00
39823;BME280;25499;53.958;10.970;2024-02-21T09:48:19;100920.22;;;13.40;100.00
39823;BME280;25499;53.958;10.970;2024-02-21T09:50:51;100867.00;;;13.45;100.00
39823;BME280;25499;53.958;10.970;2024-02-21T09:53:21;100838.13;;;13.51;100.00
39823;BME280;25499;53.958;10.970;2024-02-21T09:55:50;100792.97;;;13.39;99.88
39823;BME280;25499;53.958;10.970;2024-02-21T09:58:19;100766.91;;;13.33;98.26
39823;BME280;25499;53.958;10.970;2024-02-21T10:00:47;100791.59;;;13.71;97.64
39823;BME280;25499;53.958;10.970;2024-02-21T10:03:14;100762.28;;;13.49;95.31
39823;BME280;25499;53.958;10.970;2024-02-21T10:05:47;100746.97;;;13.23;94.65
39823;BME280;25499;53.958;10.970;2024-02-21T10:08:15;100753.22;;;13.73;94.15
39823;BME280;25499;53.958;10.970;2024-02-21T10:10:43;100762.97;;;14.15;93.04
39823;BME280;25499;53.958;10.970;2024-02-21T10:13:10;100726.94;;;14.29;91.42
39823;BME280;25499;53.958;10.970;2024-02-21T10:15:39;100657.66;;;14.44;88.60
39823;BME280;25499;53.958;10.970;2024-02-21T10:18:06;100596.75;;;14.34;86.30
39823;BME280;25499;53.958;10.970;2024-02-21T10:20:33;100606.72;;;15.69;83.75
39823;BME280;25499;53.958;10.970;2024-02-21T10:23:01;100590.03;;;17.19;80.01
39823;BME280;25499;53.958;10.970;2024-02-21T10:25:29;100481.06;;;17.73;75.23
39823;BME280;25499;53.958;10.970;2024-02-21T10:27:56;100390.97;;;18.11;70.78
39823;BME280;25499;53.958;10.970;2024-02-21T10:30:23;100364.78;;;18.91;67.16
39823;BME280;25499;53.958;10.970;2024-02-21T10:32:53;100414.09;;;20.43;64.67
39823;BME280;25499;53.958;10.970;2024-02-21T10:35:27;100147.72;;;18.31;61.54
39823;BME280;25499;53.958;10.970;2024-02-21T10:37:55;100237.75;;;18.61;62.34
39823;BME280;25499;53.958;10.970;2024-02-21T10:40:23;100227.50;;;19.31;60.90
39823;BME280;25499;53.958;10.970;2024-02-21T10:42:56;100091.81;;;16.55;62.11
39823;BME280;25499;53.958;10.970;2024-02-21T10:45:29;100174.59;;;15.93;64.73
39823;BME280;25499;53.958;10.970;2024-02-21T10:48:03;100269.25;;;16.15;66.02
39823;BME280;25499;53.958;10.970;2024-02-21T10:50:40;100290.34;;;16.64;65.59
39823;BME280;25499;53.958;10.970;2024-02-21T10:53:17;100176.97;;;15.74;64.67
39823;BME280;25499;53.958;10.970;2024-02-21T10:55:58;100139.13;;;15.81;63.96
39823;BME280;25499;53.958;10.970;2024-02-21T10:58:29;100318.31;;;18.05;63.82
39823;BME280;25499;53.958;10.970;2024-02-21T11:00:57;100156.38;;;17.30;61.91
39823;BME280;25499;53.958;10.970;2024-02-21T11:03:37;100113.94;;;17.58;61.46
39823;BME280;25499;53.958;10.970;2024-02-21T11:06:06;100276.75;;;20.05;59.58
39823;BME280;25499;53.958;10.970;2024-02-21T11:08:34;100121.06;;;19.65;56.95
39823;BME280;25499;53.958;10.970;2024-02-21T11:11:00;99989.50;;;17.55;57.57
39823;BME280;25499;53.958;10.970;2024-02-21T11:13:31;100050.63;;;16.32;60.36
39823;BME280;25499;53.958;10.970;2024-02-21T11:16:05;100103.09;;;14.20;64.15
39823;BME280;25499;53.958;10.970;2024-02-21T11:18:34;100343.78;;;15.84;66.18
39823;BME280;25499;53.958;10.970;2024-02-21T11:21:01;100276.78;;;15.16;66.07
39823;BME280;25499;53.958;10.970;2024-02-21T11:23:28;100353.88;;;14.77;68.61
39823;BME280;25499;53.958;10.970;2024-02-21T11:26:04;100462.84;;;15.19;70.33
39823;BME280;25499;53.958;10.970;2024-02-21T11:28:31;100410.75;;;14.73;70.20
39823;BME280;25499;53.958;10.970;2024-02-21T11:31:06;100365.66;;;13.03;71.98
39823;BME280;25499;53.958;10.970;2024-02-21T11:33:35;100475.47;;;12.48;75.30
39823;BME280;25499;53.958;10.970;2024-02-21T11:36:02;100573.09;;;12.37;77.70
39823;BME280;25499;53.958;10.970;2024-02-21T11:38:30;100597.38;;;11.67;79.72
39823;BME280;25499;53.958;10.970;2024-02-21T11:40:57;100665.34;;;11.49;82.23
39823;BME280;25499;53.958;10.970;2024-02-21T11:43:23;100716.59;;;11.54;84.64
39823;BME280;25499;53.958;10.970;2024-02-21T11:45:50;100747.84;;;11.57;86.28
39823;BME280;25499;53.958;10.970;2024-02-21T11:48:17;100772.94;;;11.71;87.65
39823;BME280;25499;53.958;10.970;2024-02-21T11:50:54;100777.38;;;11.60;88.81
39823;BME280;25499;53.958;10.970;2024-02-21T11:53:22;100795.41;;;11.97;89.57
39823;BME280;25499;53.958;10.970;2024-02-21T11:55:49;100795.44;;;11.93;90.12
39823;BME280;25499;53.958;10.970;2024-02-21T11:58:16;100794.84;;;11.45;91.24
39823;BME280;25499;53.958;10.970;2024-02-21T12:00:43;100794.16;;;11.11;92.65
39823;BME280;25499;53.958;10.970;2024-02-21T12:03:10;100819.50;;;10.72;93.95
39823;BME280;25499;53.958;10.970;2024-02-21T12:05:37;100857.69;;;10.65;96.26
39823;BME280;25499;53.958;10.970;2024-02-21T12:08:05;100867.22;;;10.20;98.36
39823;BME280;25499;53.958;10.970;2024-02-21T12:10:32;100908.88;;;10.17;100.00
39823;BME280;25499;53.958;10.970;2024-02-21T12:13:07;100913.19;;;9.96;100.00
39823;BME280;25499;53.958;10.970;2024-02-21T12:15:34;100931.34;;;9.76;100.00
39823;BME280;25499;53.958;10.970;2024-02-21T12:18:01;100936.47;;;9.65;100.00
39823;BME280;25499;53.958;10.970;2024-02-21T12:20:28;100952.13;;;9.73;100.00
39823;BME280;25499;53.958;10.970;2024-02-21T12:23:00;100960.81;;;9.81;100.00
39823;BME280;25499;53.958;10.970;2024-02-21T12:25:28;100962.53;;;9.81;100.00
39823;BME280;25499;53.958;10.970;2024-02-21T12:27:55;100967.72;;;9.81;100.00
39823;BME280;25499;53.958;10.970;2024-02-21T12:30:22;100967.75;;;9.76;100.00
39823;BME280;25499;53.958;10.970;2024-02-21T12:32:48;100965.97;;;9.72;100.00
39823;BME280;25499;53.958;10.970;2024-02-21T12:35:16;100968.56;;;9.66;100.00
39823;BME280;25499;53.958;10.970;2024-02-21T12:37:42;100971.16;;;9.72;100.00
39823;BME280;25499;53.958;10.970;2024-02-21T12:40:11;100963.34;;;9.64;100.00
39823;BME280;25499;53.958;10.970;2024-02-21T12:42:40;100952.09;;;9.61;100.00
39823;BME280;25499;53.958;10.970;2024-02-21T12:45:07;100954.66;;;9.56;100.00
39823;BME280;25499;53.958;10.970;2024-02-21T12:47:34;100957.28;;;9.61;100.00
39823;BME280;25499;53.958;10.970;2024-02-21T12:50:01;100962.53;;;9.75;100.00
39823;BME280;25499;53.958;10.970;2024-02-21T12:52:29;100961.66;;;9.76;100.00
39823;BME280;25499;53.958;10.970;2024-02-21T12:54:56;100956.44;;;9.69;100.00
39823;BME280;25499;53.958;10.970;2024-02-21T12:57:24;100952.94;;;9.63;100.00
39823;BME280;25499;53.958;10.970;2024-02-21T12:59:52;100943.38;;;9.60;100.00
39823;BME280;25499;53.958;10.970;2024-02-21T13:02:19;100945.13;;;9.58;100.00
39823;BME280;25499;53.958;10.970;2024-02-21T13:04:46;100945.94;;;9.48;100.00
39823;BME280;25499;53.958;10.970;2024-02-21T13:07:13;100951.09;;;9.36;100.00
39823;BME280;25499;53.958;10.970;2024-02-21T13:09:40;100951.91;;;9.27;100.00
39823;BME280;25499;53.958;10.970;2024-02-21T13:12:07;100945.84;;;9.22;100.00
39823;BME280;25499;53.958;10.970;2024-02-21T13:14:34;100951.03;;;9.23;100.00
39823;BME280;25499;53.958;10.970;2024-02-21T13:17:05;100956.19;;;9.19;100.00
39823;BME280;25499;53.958;10.970;2024-02-21T13:19:32;100950.13;;;9.17;100.00
39823;BME280;25499;53.958;10.970;2024-02-21T13:22:01;100950.94;;;9.05;100.00
39823;BME280;25499;53.958;10.970;2024-02-21T13:24:29;100956.13;;;9.11;100.00
39823;BME280;25499;53.958;10.970;2024-02-21T13:26:56;100947.50;;;9.10;100.00
39823;BME280;25499;53.958;10.970;2024-02-21T13:29:23;100944.81;;;9.01;100.00
39823;BME280;25499;53.958;10.970;2024-02-21T13:31:50;100936.19;;;9.04;100.00
39823;BME280;25499;53.958;10.970;2024-02-21T13:34:18;100937.94;;;9.06;100.00
39823;BME280;25499;53.958;10.970;2024-02-21T13:36:45;100938.72;;;8.96;100.00
39823;BME280;25499;53.958;10.970;2024-02-21T13:39:12;100938.69;;;8.87;100.00
39823;BME280;25499;53.958;10.970;2024-02-21T13:41:41;100934.28;;;8.75;100.00
39823;BME280;25499;53.958;10.970;2024-02-21T13:44:08;100933.44;;;8.82;100.00
39823;BME280;25499;53.958;10.970;2024-02-21T13:46:35;100927.34;;;8.77;100.00
39823;BME280;25499;53.958;10.970;2024-02-21T13:49:03;100921.22;;;8.63;100.00
39823;BME280;25499;53.958;10.970;2024-02-21T13:51:33;100924.63;;;8.58;100.00
39823;BME280;25499;53.958;10.970;2024-02-21T13:54:01;100918.66;;;8.67;100.00
39823;BME280;25499;53.958;10.970;2024-02-21T13:56:29;100916.88;;;8.63;100.00
39823;BME280;25499;53.958;10.970;2024-02-21T13:58:56;100905.66;;;8.66;100.00
39823;BME280;25499;53.958;10.970;2024-02-21T14:01:22;100902.16;;;8.61;100.00
39823;BME280;25499;53.958;10.970;2024-02-21T14:03:49;100897.00;;;8.68;100.00
39823;BME280;25499;53.958;10.970;2024-02-21T14:06:16;100888.44;;;8.82;100.00
39823;BME280;25499;53.958;10.970;2024-02-21T14:08:45;100890.22;;;8.87;100.00
39823;BME280;25499;53.958;10.970;2024-02-21T14:11:12;100886.75;;;8.85;100.00
39823;BME280;25499;53.958;10.970;2024-02-21T14:13:39;100878.03;;;8.75;100.00
39823;BME280;25499;53.958;10.970;2024-02-21T14:16:11;100884.13;;;8.84;100.00
39823;BME280;25499;53.958;10.970;2024-02-21T14:18:39;100871.19;;;8.88;100.00
39823;BME280;25499;53.958;10.970;2024-02-21T14:21:08;100871.13;;;8.82;100.00
39823;BME280;25499;53.958;10.970;2024-02-21T14:23:36;100865.97;;;8.85;100.00
39823;BME280;25499;53.958;10.970;2024-02-21T14:26:04;100864.25;;;8.84;100.00
39823;BME280;25499;53.958;10.970;2024-02-21T14:28:32;100855.59;;;8.85;100.00
39823;BME280;25499;53.958;10.970;2024-02-21T14:30:59;100846.84;;;8.74;100.00
39823;BME280;25499;53.958;10.970;2024-02-21T14:33:26;100842.56;;;8.76;100.00
39823;BME280;25499;53.958;10.970;2024-02-21T14:35:53;100839.13;;;8.82;100.00
39823;BME280;25499;53.958;10.970;2024-02-21T14:38:20;100833.81;;;8.60;100.00
39823;BME280;25499;53.958;10.970;2024-02-21T14:40:45;100821.72;;;8.59;100.00
39823;BME280;25499;53.958;10.970;2024-02-21T14:43:14;100819.88;;;8.46;100.00
39823;BME280;25499;53.958;10.970;2024-02-21T14:45:40;100803.34;;;8.36;100.00
39823;BME280;25499;53.958;10.970;2024-02-21T14:48:08;100799.88;;;8.32;100.00
39823;BME280;25499;53.958;10.970;2024-02-21T14:50:35;100800.84;;;8.44;100.00
39823;BME280;25499;53.958;10.970;2024-02-21T14:53:02;100793.91;;;8.43;100.00
39823;BME280;25499;53.958;10.970;2024-02-21T14:55:28;100787.88;;;8.45;100.00
39823;BME280;25499;53.958;10.970;2024-02-21T14:57:56;100795.69;;;8.50;100.00
39823;BME280;25499;53.958;10.970;2024-02-21T15:00:24;100781.00;;;8.53;100.00
39823;BME280;25499;53.958;10.970;2024-02-21T15:02:55;100782.69;;;8.48;100.00
39823;BME280;25499;53.958;10.970;2024-02-21T15:05:23;100776.69;;;8.54;100.00
39823;BME280;25499;53.958;10.970;2024-02-21T15:07:50;100769.75;;;8.53;100.00
39823;BME280;25499;53.958;10.970;2024-02-21T15:10:16;100761.13;;;8.54;100.00
39823;BME280;25499;53.958;10.970;2024-02-21T15:12:44;100760.25;;;8.53;100.00
39823;BME280;25499;53.958;10.970;2024-02-21T15:15:11;100760.25;;;8.53;100.00
39823;BME280;25499;53.958;10.970;2024-02-21T15:17:39;100759.31;;;8.45;100.00
39823;BME280;25499;53.958;10.970;2024-02-21T15:20:07;100756.78;;;8.53;100.00
39823;BME280;25499;53.958;10.970;2024-02-21T15:22:34;100756.78;;;8.51;100.00
39823;BME280;25499;53.958;10.970;2024-02-21T15:25:01;100753.28;;;8.46;100.00
39823;BME280;25499;53.958;10.970;2024-02-21T15:27:29;100746.41;;;8.51;100.00
39823;BME280;25499;53.958;10.970;2024-02-21T15:29:58;100745.50;;;8.45;100.00
39823;BME280;25499;53.958;10.970;2024-02-21T15:32:25;100744.66;;;8.49;100.00
39823;BME280;25499;53.958;10.970;2024-02-21T15:34:54;100738.59;;;8.50;100.00
39823;BME280;25499;53.958;10.970;2024-02-21T15:37:20;100736.09;;;8.61;100.00
39823;BME280;25499;53.958;10.970;2024-02-21T15:39:47;100716.13;;;8.53;100.00
39823;BME280;25499;53.958;10.970;2024-02-21T15:42:14;100715.25;;;8.51;100.00
39823;BME280;25499;53.958;10.970;2024-02-21T15:44:41;100718.75;;;8.56;100.00
39823;BME280;25499;53.958;10.970;2024-02-21T15:47:08;100711.81;;;8.51;100.00
39823;BME280;25499;53.958;10.970;2024-02-21T15:49:34;100703.16;;;8.55;100.00
39823;BME280;25499;53.958;10.970;2024-02-21T15:52:05;100712.69;;;8.56;100.00
39823;BME280;25499;53.958;10.970;2024-02-21T15:54:32;100707.47;;;8.48;100.00
39823;BME280;25499;53.958;10.970;2024-02-21T15:56:59;100699.66;;;8.47;100.00
39823;BME280;25499;53.958;10.970;2024-02-21T15:59:25;100696.19;;;8.43;100.00
39823;BME280;25499;53.958;10.970;2024-02-21T16:01:52;100697.03;;;8.42;100.00
39823;BME280;25499;53.958;10.970;2024-02-21T16:04:20;100685.75;;;8.34;100.00
39823;BME280;25499;53.958;10.970;2024-02-21T16:06:48;100680.56;;;8.34;100.00
39823;BME280;25499;53.958;10.970;2024-02-21T16:09:18;100674.50;;;8.36;100.00
39823;BME280;25499;53.958;10.970;2024-02-21T16:11:44;100666.72;;;8.29;100.00
39823;BME280;25499;53.958;10.970;2024-02-21T16:14:13;100663.28;;;8.34;100.00
39823;BME280;25499;53.958;10.970;2024-02-21T16:16:40;100659.78;;;8.31;100.00
39823;BME280;25499;53.958;10.970;2024-02-21T16:19:08;100656.28;;;8.19;100.00
39823;BME280;25499;53.958;10.970;2024-02-21T16:21:36;100651.06;;;8.18;100.00
39823;BME280;25499;53.958;10.970;2024-02-21T16:24:03;100640.69;;;8.10;100.00
39823;BME280;25499;53.958;10.970;2024-02-21T16:26:34;100632.91;;;8.12;100.00
39823;BME280;25499;53.958;10.970;2024-02-21T16:29:00;100636.34;;;8.09;100.00
39823;BME280;25499;53.958;10.970;2024-02-21T16:31:28;100625.09;;;8.04;100.00
39823;BME280;25499;53.958;10.970;2024-02-21T16:33:55;100630.28;;;8.04;100.00
39823;BME280;25499;53.958;10.970;2024-02-21T16:36:22;100635.44;;;8.01;100.00
39823;BME280;25499;53.958;10.970;2024-02-21T16:38:49;100631.94;;;7.96;100.00
39823;BME280;25499;53.958;10.970;2024-02-21T16:41:18;100644.06;;;7.98;100.00
39823;BME280;25499;53.958;10.970;2024-02-21T16:43:46;100639.72;;;7.90;100.00
39823;BME280;25499;53.958;10.970;2024-02-21T16:46:13;100630.22;;;7.92;100.00
39823;BME280;25499;53.958;10.970;2024-02-21T16:48:41;100622.41;;;7.87;100.00
39823;BME280;25499;53.958;10.970;2024-02-21T16:51:07;100632.81;;;7.93;100.00
39823;BME280;25499;53.958;10.970;2024-02-21T16:53:35;100621.53;;;7.87;100.00
39823;BME280;25499;53.958;10.970;2024-02-21T16:56:02;100612.91;;;7.86;100.00
39823;BME280;25499;53.958;10.970;2024-02-21T16:58:30;100608.59;;;7.87;100.00
39823;BME280;25499;53.958;10.970;2024-02-21T17:01:03;100593.84;;;7.76;100.00
39823;BME280;25499;53.958;10.970;2024-02-21T17:03:31;100599.84;;;7.74;100.00
39823;BME280;25499;53.958;10.970;2024-02-21T17:05:58;100592.09;;;7.75;100.00
39823;BME280;25499;53.958;10.970;2024-02-21T17:08:25;100592.13;;;7.81;100.00
39823;BME280;25499;53.958;10.970;2024-02-21T17:10:52;100577.44;;;7.82;100.00
39823;BME280;25499;53.958;10.970;2024-02-21T17:13:20;100575.69;;;7.75;100.00
39823;BME280;25499;53.958;10.970;2024-02-21T17:15:48;100560.13;;;7.75;100.00
39823;BME280;25499;53.958;10.970;2024-02-21T17:18:16;100535.09;;;7.75;100.00
39823;BME280;25499;53.958;10.970;2024-02-21T17:20:43;100503.97;;;7.69;100.00
39823;BME280;25499;53.958;10.970;2024-02-21T17:23:10;100504.78;;;7.62;100.00
39823;BME280;25499;53.958;10.970;2024-02-21T17:25:38;100506.59;;;7.71;100.00
39823;BME280;25499;53.958;10.970;2024-02-21T17:28:05;100506.59;;;7.71;100.00
39823;BME280;25499;53.958;10.970;2024-02-21T17:30:32;100490.13;;;7.69;100.00
39823;BME280;25499;53.958;10.970;2024-02-21T17:33:01;100488.41;;;7.66;100.00
39823;BME280;25499;53.958;10.970;2024-02-21T17:35:29;100514.34;;;7.75;100.00
39823;BME280;25499;53.958;10.970;2024-02-21T17:37:59;100520.38;;;7.68;100.00
39823;BME280;25499;53.958;10.970;2024-02-21T17:40:26;100529.00;;;7.70;100.00
39823;BME280;25499;53.958;10.970;2024-02-21T17:42:52;100524.66;;;7.55;100.00
39823;BME280;25499;53.958;10.970;2024-02-21T17:45:19;100528.13;;;7.59;100.00
39823;BME280;25499;53.958;10.970;2024-02-21T17:47:46;100515.16;;;7.57;100.00
39823;BME280;25499;53.958;10.970;2024-02-21T17:50:13;100517.75;;;7.59;100.00
39823;BME280;25499;53.958;10.970;2024-02-21T17:52:42;100503.91;;;7.57;100.00
39823;BME280;25499;53.958;10.970;2024-02-21T17:55:09;100503.00;;;7.50;100.00
39823;BME280;25499;53.958;10.970;2024-02-21T17:57:37;100494.34;;;7.45;100.00
39823;BME280;25499;53.958;10.970;2024-02-21T18:00:05;100504.78;;;7.57;100.00
39823;BME280;25499;53.958;10.970;2024-02-21T18:02:33;100489.22;;;7.56;100.00
39823;BME280;25499;53.958;10.970;2024-02-21T18:05:00;100472.81;;;7.51;100.00
39823;BME280;25499;53.958;10.970;2024-02-21T18:07:29;100464.16;;;7.52;100.00
39823;BME280;25499;53.958;10.970;2024-02-21T18:09:57;100465.94;;;7.57;100.00
39823;BME280;25499;53.958;10.970;2024-02-21T18:12:24;100459.88;;;7.54;100.00
39823;BME280;25499;53.958;10.970;2024-02-21T18:14:52;100436.56;;;7.52;100.00
39823;BME280;25499;53.958;10.970;2024-02-21T18:17:19;100440.84;;;7.50;100.00
39823;BME280;25499;53.958;10.970;2024-02-21T18:19:45;100428.75;;;7.46;100.00
39823;BME280;25499;53.958;10.970;2024-02-21T18:22:12;100415.81;;;7.51;100.00
39823;BME280;25499;53.958;10.970;2024-02-21T18:24:39;100405.44;;;7.47;100.00
39823;BME280;25499;53.958;10.970;2024-02-21T18:27:07;100396.78;;;7.42;100.00
39823;BME280;25499;53.958;10.970;2024-02-21T18:29:34;100382.09;;;7.38;100.00
39823;BME280;25499;53.958;10.970;2024-02-21T18:32:03;100372.63;;;7.48;100.00
39823;BME280;25499;53.958;10.970;2024-02-21T18:34:29;100371.78;;;7.49;100.00
39823;BME280;25499;53.958;10.970;2024-02-21T18:36:56;100370.88;;;7.42;100.00
39823;BME280;25499;53.958;10.970;2024-02-21T18:39:23;100359.66;;;7.40;100.00
39823;BME280;25499;53.958;10.970;2024-02-21T18:41:50;100355.31;;;7.36;100.00
39823;BME280;25499;53.958;10.970;2024-02-21T18:44:19;100357.03;;;7.34;100.00
39823;BME280;25499;53.958;10.970;2024-02-21T18:46:46;100364.84;;;7.39;100.00
39823;BME280;25499;53.958;10.970;2024-02-21T18:49:13;100348.38;;;7.26;100.00
39823;BME280;25499;53.958;10.970;2024-02-21T18:51:39;100350.09;;;7.21;100.00
39823;BME280;25499;53.958;10.970;2024-02-21T18:54:06;100347.50;;;7.24;100.00
39823;BME280;25499;53.958;10.970;2024-02-21T18:56:33;100341.47;;;7.28;100.00
39823;BME280;25499;53.958;10.970;2024-02-21T18:59:01;100350.97;;;7.29;100.00
39823;BME280;25499;53.958;10.970;2024-02-21T19:01:30;100343.19;;;7.20;100.00
39823;BME280;25499;53.958;10.970;2024-02-21T19:03:57;100328.53;;;7.23;100.00
39823;BME280;25499;53.958;10.970;2024-02-21T19:06:24;100319.91;;;7.21;100.00
39823;BME280;25499;53.958;10.970;2024-02-21T19:08:51;100327.69;;;7.29;100.00
39823;BME280;25499;53.958;10.970;2024-02-21T19:11:17;100316.47;;;7.38;100.00
39823;BME280;25499;53.958;10.970;2024-02-21T19:13:44;100304.34;;;7.26;100.00
39823;BME280;25499;53.958;10.970;2024-02-21T19:16:12;100300.06;;;7.25;100.00
39823;BME280;25499;53.958;10.970;2024-02-21T19:18:41;100298.38;;;7.33;100.00
39823;BME280;25499;53.958;10.970;2024-02-21T19:21:09;100287.13;;;7.25;100.00
39823;BME280;25499;53.958;10.970;2024-02-21T19:23:36;100291.44;;;7.32;100.00
39823;BME280;25499;53.958;10.970;2024-02-21T19:26:03;100280.22;;;7.32;100.00
39823;BME280;25499;53.958;10.970;2024-02-21T19:28:31;100278.47;;;7.27;100.00
39823;BME280;25499;53.958;10.970;2024-02-21T19:31:00;100273.31;;;7.32;100.00
39823;BME280;25499;53.958;10.970;2024-02-21T19:33:28;100265.53;;;7.27;100.00
39823;BME280;25499;53.958;10.970;2024-02-21T19:35:56;100264.69;;;7.28;100.00
39823;BME280;25499;53.958;10.970;2024-02-21T19:38:25;100269.00;;;7.26;100.00
39823;BME280;25499;53.958;10.970;2024-02-21T19:40:52;100255.22;;;7.35;100.00
39823;BME280;25499;53.958;10.970;2024-02-21T19:43:19;100248.31;;;7.40;100.00
39823;BME280;25499;53.958;10.970;2024-02-21T19:45:46;100243.97;;;7.39;100.00
39823;BME280;25499;53.958;10.970;2024-02-21T19:48:13;100235.31;;;7.28;100.00
39823;BME280;25499;53.958;10.970;2024-02-21T19:50:42;100231.03;;;7.36;100.00
39823;BME280;25499;53.958;10.970;2024-02-21T19:53:11;100234.50;;;7.38;100.00
39823;BME280;25499;53.958;10.970;2024-02-21T19:55:38;100212.06;;;7.43;100.00
39823;BME280;25499;53.958;10.970;2024-02-21T19:58:05;100212.06;;;7.40;100.00
39823;BME280;25499;53.958;10.970;2024-02-21T20:00:32;100201.72;;;7.43;100.00
39823;BME280;25499;53.958;10.970;2024-02-21T20:02:59;100197.38;;;7.41;100.00
39823;BME280;25499;53.958;10.970;2024-02-21T20:05:25;100182.72;;;7.38;100.00